createdAt,value
2022-11-24T00:00:39.898Z,24.08
2022-11-24T00:03:27.356Z,25.90
2022-11-24T00:06:03.898Z,26.05
2022-11-24T00:08:34.734Z,26.90
2022-11-24T00:11:09.729Z,25.60
2022-11-24T00:13:40.851Z,26.10
2022-11-24T00:16:13.586Z,30.08
2022-11-24T00:18:46.217Z,27.88
2022-11-24T00:21:21.721Z,26.30
2022-11-24T00:23:53.437Z,25.35
2022-11-24T00:26:25.756Z,26.02
2022-11-24T00:28:58.355Z,28.90
2022-11-24T00:31:30.759Z,27.00
2022-11-24T00:34:02.656Z,25.33
2022-11-24T00:36:36.789Z,27.35
2022-11-24T00:39:08.795Z,27.35
2022-11-24T00:41:39.479Z,29.40
2022-11-24T00:44:10.176Z,28.20
2022-11-24T00:46:40.974Z,28.25
2022-11-24T00:49:12.140Z,28.20
2022-11-24T00:51:43.976Z,29.33
2022-11-24T00:54:14.667Z,26.60
2022-11-24T00:56:44.810Z,26.45
2022-11-24T00:59:15.375Z,27.27
2022-11-24T01:01:45.619Z,25.20
2022-11-24T01:04:16.669Z,27.00
2022-11-24T01:06:48.389Z,26.98
2022-11-24T01:09:18.996Z,29.70
2022-11-24T01:12:04.530Z,28.50
2022-11-24T01:14:35.666Z,27.67
2022-11-24T01:17:06.376Z,28.08
2022-11-24T01:19:37.086Z,28.60
2022-11-24T01:22:08.868Z,25.98
2022-11-24T01:24:39.616Z,26.05
2022-11-24T01:27:10.425Z,28.90
2022-11-24T01:29:41.222Z,29.45
2022-11-24T01:32:11.540Z,25.70
2022-11-24T01:34:42.257Z,26.97
2022-11-24T01:37:13.859Z,30.65
2022-11-24T01:39:44.657Z,30.60
2022-11-24T01:42:15.125Z,26.30
2022-11-24T01:44:45.987Z,28.17
2022-11-24T01:47:34.907Z,24.90
2022-11-24T01:50:07.641Z,25.13
2022-11-24T01:52:45.078Z,26.75
2022-11-24T01:55:20.108Z,24.83
2022-11-24T01:57:53.497Z,24.35
2022-11-24T02:00:24.437Z,24.85
2022-11-24T02:02:55.594Z,23.97
2022-11-24T02:05:32.295Z,25.65
2022-11-24T02:08:05.496Z,25.58
2022-11-24T02:10:36.886Z,28.45
2022-11-24T02:13:07.358Z,25.08
2022-11-24T02:15:39.169Z,24.05
2022-11-24T02:18:09.752Z,25.92
2022-11-24T02:20:40.449Z,25.48
2022-11-24T02:23:19.711Z,24.60
2022-11-24T02:26:00.891Z,28.13
2022-11-24T02:28:33.271Z,27.30
2022-11-24T02:31:04.627Z,24.00
2022-11-24T02:33:36.280Z,27.45
2022-11-24T02:36:07.332Z,26.23
2022-11-24T02:38:38.972Z,25.33
2022-11-24T02:41:13.392Z,21.00
2022-11-24T02:43:49.012Z,25.25
2022-11-24T02:46:19.659Z,25.55
2022-11-24T02:48:49.882Z,27.20
2022-11-24T02:51:20.606Z,28.55
2022-11-24T02:53:50.840Z,26.90
2022-11-24T02:56:21.551Z,26.15
2022-11-24T02:58:53.332Z,27.80
2022-11-24T03:01:23.794Z,29.88
2022-11-24T03:03:53.872Z,27.60
2022-11-24T03:06:24.637Z,34.15
2022-11-24T03:08:54.743Z,28.05
2022-11-24T03:11:25.122Z,26.33
2022-11-24T03:13:57.362Z,29.98
2022-11-24T03:16:27.907Z,28.27
2022-11-24T03:18:58.002Z,29.50
2022-11-24T03:21:28.603Z,27.05
2022-11-24T03:23:58.973Z,24.75
2022-11-24T03:26:31.991Z,25.73
2022-11-24T03:29:04.643Z,30.30
2022-11-24T03:31:35.643Z,24.27
2022-11-24T03:34:05.894Z,27.52
2022-11-24T03:36:36.494Z,27.33
2022-11-24T03:39:07.496Z,27.13
2022-11-24T03:41:38.171Z,25.23
2022-11-24T03:44:09.903Z,24.52
2022-11-24T03:46:40.636Z,23.90
2022-11-24T03:49:11.984Z,25.38
2022-11-24T03:51:42.743Z,21.77
2022-11-24T03:54:13.223Z,24.48
2022-11-24T03:56:44.483Z,23.27
2022-11-24T03:59:16.449Z,19.20
2022-11-24T04:01:47.269Z,19.65
2022-11-24T04:04:17.640Z,18.98
2022-11-24T04:06:48.212Z,20.08
2022-11-24T04:09:18.601Z,23.52
2022-11-24T04:12:06.503Z,22.83
2022-11-24T04:14:38.453Z,21.25
2022-11-24T04:17:08.972Z,23.23
2022-11-24T04:19:39.283Z,21.63
2022-11-24T04:22:10.193Z,25.02
2022-11-24T04:24:40.520Z,24.15
2022-11-24T04:27:11.020Z,22.27
2022-11-24T04:29:42.800Z,22.02
2022-11-24T04:32:13.474Z,24.20
2022-11-24T04:34:43.983Z,20.63
2022-11-24T04:37:14.682Z,23.83
2022-11-24T04:39:45.331Z,21.55
2022-11-24T04:42:16.326Z,21.85
2022-11-24T04:44:48.121Z,23.52
2022-11-24T04:47:22.552Z,21.92
2022-11-24T04:49:53.173Z,21.27
2022-11-24T04:52:26.020Z,24.75
2022-11-24T04:54:56.235Z,22.10
2022-11-24T04:57:28.271Z,22.97
2022-11-24T05:00:00.590Z,21.65
2022-11-24T05:02:31.652Z,21.92
2022-11-24T05:05:02.034Z,24.17
2022-11-24T05:07:35.087Z,21.90
2022-11-24T05:10:22.983Z,22.10
2022-11-24T05:12:57.714Z,20.25
2022-11-24T05:15:29.552Z,19.73
2022-11-24T05:18:00.330Z,17.88
2022-11-24T05:20:30.862Z,20.27
2022-11-24T05:23:06.368Z,19.33
2022-11-24T05:25:39.706Z,19.30
2022-11-24T05:28:11.862Z,21.90
2022-11-24T05:30:43.772Z,21.77
2022-11-24T05:33:19.306Z,21.55
2022-11-24T05:35:50.107Z,21.30
2022-11-24T05:38:21.407Z,23.52
2022-11-24T05:40:51.600Z,21.88
2022-11-24T05:43:22.132Z,20.02
2022-11-24T05:45:53.720Z,22.63
2022-11-24T05:48:24.200Z,23.08
2022-11-24T05:50:56.561Z,24.33
2022-11-24T05:53:27.308Z,20.63
2022-11-24T05:55:57.530Z,25.77
2022-11-24T05:58:28.235Z,22.73
2022-11-24T06:00:59.915Z,25.83
2022-11-24T06:03:30.345Z,24.10
2022-11-24T06:06:00.528Z,21.70
2022-11-24T06:08:31.621Z,21.63
2022-11-24T06:11:17.539Z,21.80
2022-11-24T06:13:49.819Z,24.83
2022-11-24T06:16:21.647Z,21.63
2022-11-24T06:18:52.184Z,24.77
2022-11-24T06:21:22.734Z,23.77
2022-11-24T06:23:53.679Z,21.90
2022-11-24T06:26:24.072Z,22.60
2022-11-24T06:28:54.802Z,22.63
2022-11-24T06:31:26.709Z,22.20
2022-11-24T06:33:57.465Z,22.27
2022-11-24T06:36:28.373Z,21.58
2022-11-24T06:41:30.283Z,22.77
2022-11-24T06:44:04.032Z,24.05
2022-11-24T06:46:40.893Z,21.90
2022-11-24T06:49:11.823Z,22.83
2022-11-24T06:51:42.275Z,22.52
2022-11-24T06:54:17.393Z,21.45
2022-11-24T06:56:47.754Z,22.15
2022-11-24T06:59:21.229Z,22.13
2022-11-24T07:01:57.902Z,23.55
2022-11-24T07:04:28.613Z,25.92
2022-11-24T07:07:28.680Z,29.00
2022-11-24T07:09:59.673Z,27.52
2022-11-24T07:12:30.085Z,23.33
2022-11-24T07:15:01.251Z,26.40
2022-11-24T07:17:33.292Z,29.20
2022-11-24T07:20:04.951Z,25.65
2022-11-24T07:22:35.472Z,27.05
2022-11-24T07:25:10.205Z,22.60
2022-11-24T07:27:41.347Z,23.98
2022-11-24T07:32:44.194Z,27.88
2022-11-24T07:35:14.605Z,23.55
2022-11-24T07:37:45.451Z,25.42
2022-11-24T07:40:16.163Z,28.67
2022-11-24T07:42:46.854Z,25.83
2022-11-24T07:45:17.634Z,25.60
2022-11-24T07:47:51.919Z,26.08
2022-11-24T07:50:28.147Z,30.33
2022-11-24T07:53:05.005Z,29.65
2022-11-24T07:55:36.235Z,27.45
2022-11-24T07:58:08.202Z,27.45
2022-11-24T08:00:38.576Z,26.58
2022-11-24T08:03:11.054Z,26.73
2022-11-24T08:06:07.778Z,24.05
2022-11-24T08:08:34.723Z,24.10
2022-11-24T08:11:09.975Z,22.42
2022-11-24T08:13:41.512Z,19.95
2022-11-24T08:16:13.965Z,19.58
2022-11-24T08:18:50.303Z,21.38
2022-11-24T08:21:21.231Z,23.48
2022-11-24T08:23:56.038Z,21.00
2022-11-24T08:26:27.025Z,23.48
2022-11-24T08:29:00.302Z,24.73
2022-11-24T08:31:35.223Z,23.70
2022-11-24T08:34:09.094Z,23.95
2022-11-24T08:36:39.392Z,23.58
2022-11-24T08:39:12.341Z,26.20
2022-11-24T08:41:43.145Z,26.48
2022-11-24T08:44:16.144Z,25.27
2022-11-24T08:46:47.450Z,25.73
2022-11-24T08:49:20.162Z,25.83
2022-11-24T08:51:51.694Z,22.10
2022-11-24T08:54:22.349Z,22.83
2022-11-24T08:56:53.313Z,21.55
2022-11-24T08:59:24.232Z,21.30
2022-11-24T09:01:55.286Z,20.70
2022-11-24T09:04:32.315Z,23.48
2022-11-24T09:07:03.469Z,21.08
2022-11-24T09:09:35.432Z,21.05
2022-11-24T09:12:11.336Z,21.95
2022-11-24T09:14:47.694Z,21.42
2022-11-24T09:17:19.176Z,19.70
2022-11-24T09:19:52.893Z,21.23
2022-11-24T09:22:23.883Z,20.75
2022-11-24T09:24:55.081Z,21.35
2022-11-24T09:27:27.994Z,21.60
2022-11-24T09:29:59.084Z,18.38
2022-11-24T09:32:30.444Z,23.00
2022-11-24T09:35:04.614Z,22.88
2022-11-24T09:37:36.228Z,23.65
2022-11-24T09:40:19.324Z,27.08
2022-11-24T09:43:02.583Z,24.23
2022-11-24T09:46:05.073Z,25.25
2022-11-24T09:48:41.330Z,22.70
2022-11-24T09:51:20.234Z,22.25
2022-11-24T09:53:57.757Z,24.05
2022-11-24T09:56:31.743Z,22.52
2022-11-24T09:59:20.213Z,23.40
2022-11-24T10:01:56.155Z,24.38
2022-11-24T10:04:30.975Z,22.48
2022-11-24T10:07:11.013Z,24.27
2022-11-24T10:10:13.384Z,23.38
2022-11-24T10:12:56.170Z,25.15
2022-11-24T10:15:55.962Z,34.90
2022-11-24T10:19:04.393Z,28.90
2022-11-24T10:22:00.893Z,25.58
2022-11-24T10:24:55.228Z,23.40
2022-11-24T10:27:32.976Z,26.15
2022-11-24T10:30:04.513Z,26.80
2022-11-24T10:32:39.604Z,26.88
2022-11-24T10:35:20.792Z,26.70
2022-11-24T10:38:15.829Z,26.35
2022-11-24T10:40:58.237Z,24.27
2022-11-24T10:43:30.081Z,24.70
2022-11-24T10:46:12.520Z,24.23
2022-11-24T10:48:47.510Z,26.45
2022-11-24T10:51:44.693Z,21.92
2022-11-24T10:54:23.382Z,23.23
2022-11-24T10:57:00.645Z,23.63
2022-11-24T10:59:40.562Z,25.92
2022-11-24T11:02:33.051Z,23.83
2022-11-24T11:05:35.591Z,22.85
2022-11-24T11:08:22.234Z,23.83
2022-11-24T11:11:06.313Z,25.30
2022-11-24T11:13:38.950Z,22.58
2022-11-24T11:16:26.432Z,23.48
2022-11-24T11:18:57.908Z,22.67
2022-11-24T11:21:33.684Z,20.30
2022-11-24T11:24:07.347Z,22.85
2022-11-24T11:26:41.917Z,21.55
2022-11-24T11:35:15.708Z,21.88
2022-11-24T11:37:48.910Z,22.60
2022-11-24T11:40:24.614Z,23.40
2022-11-24T11:43:03.869Z,24.90
2022-11-24T11:45:38.873Z,23.48
2022-11-24T11:48:25.628Z,27.20
2022-11-24T11:54:00.308Z,27.58
2022-11-24T11:56:36.144Z,29.48
2022-11-24T11:59:36.127Z,28.83
2022-11-24T12:02:38.086Z,28.17
2022-11-24T12:05:21.617Z,28.23
2022-11-24T12:08:09.763Z,27.30
2022-11-24T12:10:48.884Z,28.52
2022-11-24T12:13:51.486Z,25.88
2022-11-24T12:19:25.767Z,23.05
2022-11-24T12:22:08.197Z,27.58
2022-11-24T12:24:51.031Z,28.85
2022-11-24T12:27:39.908Z,27.73
2022-11-24T12:30:16.159Z,28.65
2022-11-24T12:33:12.857Z,31.70
2022-11-24T12:36:06.255Z,26.88
2022-11-24T12:38:52.856Z,27.85
2022-11-24T12:41:42.063Z,31.02
2022-11-24T12:44:32.078Z,24.55
2022-11-24T12:47:13.732Z,28.08
2022-11-24T12:49:58.826Z,28.75
2022-11-24T12:52:36.057Z,27.65
2022-11-24T12:55:07.476Z,27.60
2022-11-24T12:57:46.145Z,24.95
2022-11-24T13:00:23.255Z,34.67
2022-11-24T13:03:07.140Z,26.30
2022-11-24T13:05:49.057Z,28.55
2022-11-24T13:08:22.078Z,25.98
2022-11-24T13:10:57.406Z,27.17
2022-11-24T13:13:52.028Z,27.45
2022-11-24T13:16:53.569Z,27.67
2022-11-24T13:19:19.557Z,26.58
2022-11-24T13:22:15.638Z,31.65
2022-11-24T13:24:53.709Z,24.45
2022-11-24T13:27:41.344Z,26.98
2022-11-24T13:30:52.997Z,27.00
2022-11-24T13:33:47.778Z,25.85
2022-11-24T13:36:35.113Z,28.00
2022-11-24T13:39:06.889Z,29.92
2022-11-24T13:42:43.943Z,30.80
2022-11-24T13:45:05.706Z,27.83
2022-11-24T13:47:39.519Z,30.67
2022-11-24T13:50:25.437Z,31.02
2022-11-24T13:53:08.810Z,26.95
2022-11-24T13:55:41.726Z,27.25
2022-11-24T13:58:33.946Z,29.70
2022-11-24T14:01:21.019Z,31.42
2022-11-24T14:04:29.884Z,27.85
2022-11-24T14:07:09.761Z,28.23
2022-11-24T14:09:46.293Z,30.02
2022-11-24T14:12:19.646Z,27.23
2022-11-24T14:14:57.324Z,31.50
2022-11-24T14:17:28.909Z,29.67
2022-11-24T14:20:02.187Z,31.77
2022-11-24T14:22:43.178Z,29.92
2022-11-24T14:50:00.464Z,29.63
2022-11-24T14:52:33.514Z,31.05
2022-11-24T14:55:21.829Z,31.83
2022-11-24T14:58:21.324Z,32.15
2022-11-24T16:00:18.766Z,37.28
2022-11-24T16:02:51.024Z,38.13
2022-11-24T16:05:23.471Z,36.55
2022-11-24T16:07:55.054Z,39.90
2022-11-24T16:10:30.922Z,36.90
2022-11-24T16:13:02.562Z,38.75
2022-11-24T16:15:34.780Z,36.08
2022-11-24T16:18:07.333Z,34.22
2022-11-24T16:20:38.650Z,39.30
2022-11-24T16:23:09.592Z,36.58
2022-11-24T16:25:40.112Z,39.90
2022-11-24T16:28:11.239Z,34.38
2022-11-24T16:30:43.673Z,38.55
2022-11-24T16:33:14.834Z,33.28
2022-11-24T16:35:48.445Z,33.55
2022-11-24T16:38:19.532Z,35.40
2022-11-24T16:40:54.273Z,40.60
2022-11-24T16:43:26.182Z,34.53
2022-11-24T16:46:09.699Z,36.15
2022-11-24T16:48:41.451Z,33.60
2022-11-24T16:51:13.623Z,35.80
2022-11-24T16:53:46.946Z,36.88
2022-11-24T16:56:17.959Z,38.55
2022-11-24T16:58:48.941Z,36.75
2022-11-24T17:01:21.556Z,39.08
2022-11-24T17:03:53.174Z,37.40
2022-11-24T17:06:24.524Z,36.45
2022-11-24T17:08:57.393Z,39.35
2022-11-24T17:11:29.972Z,38.70
2022-11-24T17:14:01.464Z,36.00
2022-11-24T17:16:33.905Z,41.42
2022-11-24T17:19:05.830Z,37.60
2022-11-24T17:24:09.290Z,42.55
2022-11-24T17:26:42.494Z,33.50
2022-11-24T17:29:17.815Z,36.50
2022-11-24T17:31:52.223Z,36.55
2022-11-24T17:34:23.576Z,39.88
2022-11-24T17:36:54.323Z,40.97
2022-11-24T17:39:26.989Z,41.47
2022-11-24T17:41:57.899Z,44.28
2022-11-24T17:44:29.059Z,40.50
2022-11-24T17:47:01.319Z,40.88
2022-11-24T17:49:32.380Z,44.05
2022-11-24T17:52:02.979Z,40.50
2022-11-24T17:54:49.206Z,39.22
2022-11-24T17:57:19.930Z,33.60
2022-11-24T17:59:51.488Z,40.35
2022-11-24T18:02:25.738Z,37.15
2022-11-24T18:04:58.620Z,38.78
2022-11-24T18:07:30.985Z,37.10
2022-11-24T18:10:02.196Z,42.10
2022-11-24T18:12:34.551Z,41.63
2022-11-24T18:15:06.469Z,36.25
2022-11-24T18:17:43.940Z,37.92
2022-11-24T18:20:15.777Z,37.97
2022-11-24T18:23:05.169Z,37.75
2022-11-24T18:25:38.417Z,36.03
2022-11-24T18:28:09.818Z,32.00
2022-11-24T18:30:41.629Z,34.58
2022-11-24T18:33:15.059Z,36.13
2022-11-24T18:35:57.630Z,38.22
2022-11-24T18:41:08.163Z,31.88
2022-11-24T18:43:42.983Z,36.85
2022-11-24T18:46:15.935Z,36.47
2022-11-24T18:48:48.381Z,34.30
2022-11-24T18:51:20.202Z,32.78
2022-11-24T18:53:58.364Z,35.83
2022-11-24T18:56:31.030Z,32.67
2022-11-24T18:59:10.685Z,40.53
2022-11-24T19:01:42.943Z,33.60
2022-11-24T19:06:50.298Z,30.83
2022-11-24T19:09:23.100Z,35.10
2022-11-24T19:11:54.049Z,36.80
2022-11-24T19:14:30.449Z,35.35
2022-11-24T19:17:05.916Z,38.38
2022-11-24T19:19:42.311Z,36.70
2022-11-24T19:32:44.641Z,36.20
2022-11-24T19:35:19.611Z,31.38
2022-11-24T19:37:53.189Z,30.63
2022-11-24T19:40:29.681Z,36.17
2022-11-24T19:43:03.958Z,32.90
2022-11-24T19:45:38.388Z,34.22
2022-11-24T19:48:12.126Z,33.75
2022-11-24T19:50:54.883Z,31.77
2022-11-24T19:53:28.510Z,35.28
2022-11-24T19:56:12.096Z,36.50
2022-11-24T19:58:49.161Z,34.75
2022-11-24T20:01:25.982Z,28.42
2022-11-24T20:04:01.477Z,29.88
2022-11-24T20:06:39.619Z,30.75
2022-11-24T20:09:15.141Z,34.25
2022-11-24T20:11:47.649Z,30.38
2022-11-24T20:14:20.856Z,29.60
2022-11-24T20:16:54.456Z,30.23
2022-11-24T20:19:27.369Z,31.90
2022-11-24T20:22:00.859Z,29.23
2022-11-24T20:24:35.146Z,28.35
2022-11-24T20:27:08.630Z,30.92
2022-11-24T20:29:45.232Z,28.15
2022-11-24T20:32:23.656Z,31.80
2022-11-24T20:34:56.271Z,32.22
2022-11-24T20:37:50.656Z,32.13
2022-11-24T20:40:24.711Z,31.48
2022-11-24T20:42:56.863Z,30.70
2022-11-24T20:45:32.204Z,32.20
2022-11-24T20:48:08.973Z,31.23
2022-11-24T20:50:40.888Z,34.25
2022-11-24T20:53:13.320Z,37.08
2022-11-24T20:55:45.456Z,35.92
2022-11-24T20:58:16.509Z,31.77
2022-11-24T21:00:46.908Z,32.90
2022-11-24T21:03:18.099Z,32.67
2022-11-24T21:05:48.720Z,30.90
2022-11-24T21:08:20.930Z,30.80
2022-11-24T21:10:56.639Z,31.20
2022-11-24T21:13:27.910Z,31.30
2022-11-24T21:15:58.606Z,32.65
2022-11-24T21:18:32.429Z,31.77
2022-11-24T21:21:02.919Z,31.92
2022-11-24T21:23:36.439Z,30.80
2022-11-24T21:26:14.797Z,30.15
2022-11-24T21:28:49.461Z,32.90
2022-11-24T21:31:22.952Z,26.85
2022-11-24T21:33:56.658Z,31.38
2022-11-24T21:36:29.020Z,32.22
2022-11-24T21:39:02.262Z,29.45
2022-11-24T21:41:35.299Z,31.55
2022-11-24T21:44:07.090Z,33.22
2022-11-24T21:46:44.113Z,31.23
2022-11-24T21:49:18.779Z,36.78
2022-11-24T21:51:56.126Z,38.92
2022-11-24T21:54:29.110Z,31.55
2022-11-24T21:56:59.989Z,37.92
2022-11-24T21:59:55.569Z,33.88
2022-11-24T22:02:26.235Z,35.97
2022-11-24T22:04:57.221Z,34.38
2022-11-24T22:07:27.901Z,35.22
2022-11-24T22:10:00.749Z,29.13
2022-11-24T22:12:32.367Z,31.65
2022-11-24T22:15:03.259Z,34.13
2022-11-24T22:17:33.759Z,30.20
2022-11-24T22:20:05.286Z,29.38
2022-11-24T22:22:35.930Z,32.28
2022-11-24T22:25:09.400Z,34.63
2022-11-24T22:27:40.640Z,29.98
2022-11-24T22:32:43.311Z,31.63
2022-11-24T22:35:16.609Z,32.60
2022-11-24T22:37:47.770Z,30.63
2022-11-24T22:40:20.890Z,31.40
2022-11-24T22:42:53.480Z,29.83
2022-11-24T22:45:26.743Z,32.38
2022-11-24T22:47:57.471Z,30.40
2022-11-24T22:52:59.026Z,27.88
2022-11-24T22:55:31.460Z,25.98
2022-11-24T22:58:02.060Z,27.92
2022-11-24T23:00:33.059Z,28.83
2022-11-24T23:03:04.629Z,27.73
2022-11-24T23:05:35.907Z,32.67
2022-11-24T23:08:06.987Z,30.42
2022-11-24T23:13:09.829Z,32.13
2022-11-24T23:15:40.690Z,31.73
2022-11-24T23:18:11.071Z,30.10
2022-11-24T23:20:41.838Z,33.67
2022-11-24T23:23:12.278Z,33.30
2022-11-24T23:25:44.437Z,33.55
2022-11-24T23:28:14.990Z,32.15
2022-11-24T23:30:45.817Z,30.83
2022-11-24T23:33:16.617Z,29.48
2022-11-24T23:35:47.305Z,32.15
2022-11-24T23:38:17.580Z,32.90
2022-11-24T23:40:49.819Z,32.93
2022-11-24T23:43:20.109Z,30.42
2022-11-24T23:45:50.816Z,34.55
2022-11-24T23:48:21.419Z,34.47
2022-11-24T23:50:52.189Z,33.28
2022-11-24T23:53:22.610Z,33.55
2022-11-24T23:55:58.381Z,31.63
2022-11-24T23:58:29.369Z,30.35
